Time;durP1;ratioP1;P1;durP2;ratioP2;P2;SDS_P1;SDS_P2;PMS_P1;PMS_P2;Temp;Humidity;BMP_temperature;BMP_pressure;BME280_temperature;BME280_humidity;BME280_pressure;Samples;Min_cycle;Max_cycle;Signal;HPM_P1;HPM_P2
2022/06/03 00:01:08;;;;;;;;;;;;;;;21.21;43.56;102041.59;5047395;28;19921;-47
2022/06/03 00:03:33;;;;;;;;;;;;;;;21.22;43.03;102035.53;5057849;28;19931;-43
2022/06/03 00:06:08;;;;;;;;;;;;;;;21.21;42.86;102033.75;5072543;28;20008;-42
2022/06/03 00:08:33;;;;;;;;;;;;;;;21.21;42.92;102033.75;5044061;28;19916;-42
2022/06/03 00:11:17;;;;;;;;;;;;;;;21.21;42.99;102036.38;5052318;28;19962;-42
2022/06/03 00:13:43;;;;;;;;;;;;;;;21.22;43.16;102038.16;5038372;28;19966;-41
2022/06/03 00:16:27;;;;;;;;;;;;;;;21.22;42.91;102035.53;5042966;28;19916;-42
2022/06/03 00:18:58;;;;;;;;;;;;;;;21.22;42.85;102040.75;5072504;28;19940;-41
2022/06/03 00:21:29;;;;;;;;;;;;;;;21.22;42.81;102034.66;5065917;28;19968;-45
2022/06/03 00:24:01;;;;;;;;;;;;;;;21.22;42.92;102040.75;5064324;28;20726;-46
2022/06/03 00:26:35;;;;;;;;;;;;;;;21.21;42.83;102039.00;5061905;28;20036;-47
2022/06/03 00:29:22;;;;;;;;;;;;;;;21.20;43.19;102042.47;5056736;28;19923;-41
2022/06/03 00:32:01;;;;;;;;;;;;;;;21.21;42.91;102033.75;5050824;28;20422;-49
2022/06/03 00:34:32;;;;;;;;;;;;;;;21.21;42.81;102039.00;5028872;28;19922;-46
2022/06/03 00:37:03;;;;;;;;;;;;;;;21.21;42.83;102039.00;5048116;28;19925;-42
2022/06/03 00:39:39;;;;;;;;;;;;;;;21.21;42.98;102036.38;5066973;28;19942;-41
2022/06/03 00:42:21;;;;;;;;;;;;;;;21.21;42.94;102039.00;5045907;28;19923;-42
2022/06/03 00:45:01;;;;;;;;;;;;;;;21.21;43.11;102039.00;5072182;28;19912;-45
2022/06/03 00:47:32;;;;;;;;;;;;;;;21.21;43.23;102033.75;5047986;28;20402;-41
2022/06/03 00:50:10;;;;;;;;;;;;;;;21.22;42.94;102029.41;5053986;28;20166;-44
2022/06/03 00:52:54;;;;;;;;;;;;;;;21.21;43.21;102031.13;5059559;28;19912;-47
2022/06/03 00:55:23;;;;;;;;;;;;;;;21.21;43.23;102022.41;5063904;28;19955;-42
2022/06/03 00:58:07;;;;;;;;;;;;;;;21.22;42.74;102024.16;5068679;28;19916;-48
2022/06/03 01:00:36;;;;;;;;;;;;;;;21.21;42.91;102023.28;5062583;28;20011;-44
2022/06/03 01:03:15;;;;;;;;;;;;;;;21.22;42.97;102035.53;5042824;28;20010;-42
2022/06/03 01:05:40;;;;;;;;;;;;;;;21.22;42.70;102025.03;5035701;28;20354;-41
2022/06/03 01:08:06;;;;;;;;;;;;;;;21.22;42.91;102024.16;5056328;28;20024;-40
2022/06/03 01:10:49;;;;;;;;;;;;;;;21.23;42.83;102029.44;5067292;28;20426;-42
2022/06/03 01:13:28;;;;;;;;;;;;;;;21.21;42.97;102025.88;5048449;28;19916;-41
2022/06/03 01:16:13;;;;;;;;;;;;;;;21.23;43.03;102032.06;5052315;28;19923;-41
2022/06/03 01:18:57;;;;;;;;;;;;;;;21.23;42.61;102031.19;5066504;28;19917;-41
2022/06/03 01:21:22;;;;;;;;;;;;;;;21.22;43.05;102025.03;5062548;28;19916;-45
2022/06/03 01:23:57;;;;;;;;;;;;;;;21.23;42.54;102032.06;5050301;28;19931;-41
2022/06/03 01:26:24;;;;;;;;;;;;;;;21.24;42.98;102039.06;5059649;28;19916;-42
2022/06/03 01:28:58;;;;;;;;;;;;;;;21.24;42.76;102036.44;5064117;28;19914;-41
2022/06/03 01:31:46;;;;;;;;;;;;;;;21.23;42.86;102042.53;5069622;28;19919;-42
2022/06/03 01:34:26;;;;;;;;;;;;;;;21.23;42.86;102045.16;5067518;28;19952;-44
2022/06/03 01:37:11;;;;;;;;;;;;;;;21.23;42.71;102032.06;5048439;28;19955;-42
2022/06/03 01:39:39;;;;;;;;;;;;;;;21.24;42.88;102044.31;5062745;28;20015;-42
2022/06/03 01:42:27;;;;;;;;;;;;;;;21.23;42.78;102037.31;5047040;28;20304;-41
2022/06/03 01:45:07;;;;;;;;;;;;;;;21.23;42.38;102037.31;5033080;28;20334;-41
2022/06/03 01:48:08;;;;;;;;;;;;;;;21.25;42.86;102034.72;5054075;28;20308;-40
2022/06/03 01:50:40;;;;;;;;;;;;;;;21.23;42.86;102037.31;5016421;28;20012;-40
2022/06/03 01:53:14;;;;;;;;;;;;;;;21.25;42.92;102035.59;5034968;28;20392;-43
2022/06/03 01:55:49;;;;;;;;;;;;;;;21.25;42.57;102035.59;5048073;28;19912;-41
2022/06/03 01:58:27;;;;;;;;;;;;;;;21.26;42.58;102032.13;5046424;28;19924;-45
2022/06/03 02:00:56;;;;;;;;;;;;;;;21.25;42.48;102035.59;5033164;28;20361;-47
2022/06/03 02:03:43;;;;;;;;;;;;;;;21.24;42.55;102033.84;5063165;28;20010;-42
2022/06/03 02:06:26;;;;;;;;;;;;;;;21.24;42.54;102033.84;5047067;28;19986;-44
2022/06/03 02:08:56;;;;;;;;;;;;;;;21.24;43.01;102033.84;5049244;28;19921;-43
2022/06/03 02:11:25;;;;;;;;;;;;;;;21.24;42.68;102032.97;5031069;28;20339;-41
2022/06/03 02:14:05;;;;;;;;;;;;;;;21.24;42.65;102039.06;5044554;28;19916;-41
2022/06/03 02:16:36;;;;;;;;;;;;;;;21.24;42.57;102044.31;5063416;28;19991;-42
2022/06/03 02:19:07;;;;;;;;;;;;;;;21.23;42.53;102034.69;5043281;28;19913;-41
2022/06/03 02:21:45;;;;;;;;;;;;;;;21.25;42.79;102030.38;5063808;28;19923;-42
2022/06/03 02:24:22;;;;;;;;;;;;;;;21.24;42.70;102036.44;5029581;28;19920;-42
2022/06/03 02:26:54;;;;;;;;;;;;;;;21.24;42.67;102033.84;5063961;28;19920;-43
2022/06/03 02:32:21;;;;;;;;;;;;;;;21.24;42.66;102033.84;5059051;28;19919;-43
2022/06/03 02:34:56;;;;;;;;;;;;;;;21.25;42.78;102035.59;5043522;28;19921;-44
2022/06/03 02:37:40;;;;;;;;;;;;;;;21.24;42.51;102039.06;5042103;28;19962;-40
2022/06/03 02:40:06;;;;;;;;;;;;;;;21.23;42.48;102032.06;5046466;28;19970;-42
2022/06/03 02:42:45;;;;;;;;;;;;;;;21.24;42.22;102028.59;5066756;28;19916;-43
2022/06/03 02:45:13;;;;;;;;;;;;;;;21.24;42.58;102028.59;5044891;28;19916;-42
2022/06/03 02:47:47;;;;;;;;;;;;;;;21.24;42.13;102028.59;5064140;28;19967;-43
2022/06/03 02:50:51;;;;;;;;;;;;;;;21.24;42.30;102027.72;5045901;28;19966;-44
2022/06/03 02:53:35;;;;;;;;;;;;;;;21.23;42.17;102026.81;4991489;28;19933;-41
2022/06/03 02:56:06;;;;;;;;;;;;;;;21.23;42.38;102026.81;4987590;28;19917;-40
2022/06/03 02:58:50;;;;;;;;;;;;;;;21.23;42.66;102018.97;5034506;28;19921;-40
2022/06/03 03:01:21;;;;;;;;;;;;;;;21.22;42.27;102019.81;5062241;28;19917;-45
2022/06/03 03:03:56;;;;;;;;;;;;;;;21.23;42.28;102025.94;5047260;28;19920;-43
2022/06/03 03:06:44;;;;;;;;;;;;;;;21.24;42.23;102036.44;5047599;28;19958;-40
2022/06/03 03:09:10;;;;;;;;;;;;;;;21.24;42.39;102033.84;5065042;28;19928;-40
2022/06/03 03:12:13;;;;;;;;;;;;;;;21.24;42.01;102028.59;5061295;28;20265;-43
2022/06/03 03:14:41;;;;;;;;;;;;;;;21.24;41.95;102039.06;4985084;28;20029;-43
2022/06/03 03:17:18;;;;;;;;;;;;;;;21.24;41.92;102033.84;4966359;28;19969;-43
2022/06/03 03:20:07;;;;;;;;;;;;;;;21.24;42.28;102043.44;5044161;28;19932;-41
2022/06/03 03:22:32;;;;;;;;;;;;;;;21.24;42.19;102041.69;5060226;28;19999;-40
2022/06/03 03:25:18;;;;;;;;;;;;;;;21.25;41.91;102035.59;5064452;28;20419;-43
2022/06/03 03:28:06;;;;;;;;;;;;;;;21.25;42.04;102029.50;5044812;28;19974;-43
2022/06/03 03:30:42;;;;;;;;;;;;;;;21.25;42.57;102019.00;5066974;28;19916;-43
2022/06/03 03:33:14;;;;;;;;;;;;;;;21.26;42.15;102031.28;5071608;28;19991;-44
2022/06/03 03:35:57;;;;;;;;;;;;;;;21.26;42.12;102032.13;5054868;28;19919;-42
2022/06/03 03:38:25;;;;;;;;;;;;;;;21.28;42.09;102030.44;5039580;28;19966;-41
2022/06/03 03:41:00;;;;;;;;;;;;;;;21.29;42.14;102032.22;5069960;28;19970;-42
2022/06/03 03:43:43;;;;;;;;;;;;;;;21.30;42.05;102034.00;5072820;28;20351;-42
2022/06/03 03:46:17;;;;;;;;;;;;;;;21.31;42.05;102033.16;5067499;28;20007;-45
2022/06/03 03:49:01;;;;;;;;;;;;;;;21.31;41.94;102025.28;5064295;28;20407;-44
2022/06/03 03:51:30;;;;;;;;;;;;;;;21.31;41.86;102030.53;5070617;28;19916;-43
2022/06/03 03:53:56;;;;;;;;;;;;;;;21.33;42.16;102037.53;5054874;28;20357;-46
2022/06/03 03:56:30;;;;;;;;;;;;;;;21.33;42.10;102038.44;5049046;28;20170;-43
2022/06/03 03:58:58;;;;;;;;;;;;;;;21.33;41.91;102048.03;5061483;28;19916;-42
2022/06/03 04:01:29;;;;;;;;;;;;;;;21.35;42.06;102051.56;5064819;28;19920;-40
2022/06/03 04:03:59;;;;;;;;;;;;;;;21.35;41.97;102041.09;5067386;28;19917;-44
2022/06/03 04:06:39;;;;;;;;;;;;;;;21.37;42.05;102039.41;5046533;28;19962;-41
2022/06/03 04:09:39;;;;;;;;;;;;;;;21.41;42.18;102046.50;5068790;28;19921;-46
2022/06/03 04:12:05;;;;;;;;;;;;;;;21.49;41.74;102046.72;4985768;28;19918;-43
2022/06/03 04:14:39;;;;;;;;;;;;;;;21.55;41.83;102047.75;5040131;28;19912;-41
2022/06/03 04:17:10;;;;;;;;;;;;;;;21.58;41.74;102054.81;5048285;28;19942;-42
2022/06/03 04:19:35;;;;;;;;;;;;;;;21.54;41.89;102048.59;5046375;28;19952;-41
2022/06/03 04:22:05;;;;;;;;;;;;;;;21.47;41.64;102046.66;5038963;28;19963;-41
2022/06/03 04:24:37;;;;;;;;;;;;;;;21.44;41.83;102057.06;5033561;28;19913;-42
2022/06/03 04:27:07;;;;;;;;;;;;;;;21.42;42.06;102061.38;5071885;28;19944;-40
2022/06/03 04:29:50;;;;;;;;;;;;;;;21.41;41.79;102056.97;5059728;28;19991;-42
2022/06/03 04:32:34;;;;;;;;;;;;;;;21.41;41.95;102059.59;5043609;28;19920;-41
2022/06/03 04:35:18;;;;;;;;;;;;;;;21.41;41.83;102056.97;5054085;28;20284;-42
2022/06/03 04:38:02;;;;;;;;;;;;;;;21.39;41.44;102061.28;5071804;28;19958;-41
2022/06/03 04:40:42;;;;;;;;;;;;;;;21.38;41.90;102057.81;5067448;28;19916;-41
2022/06/03 04:43:26;;;;;;;;;;;;;;;21.39;41.89;102059.56;5063792;28;20011;-43
2022/06/03 04:45:51;;;;;;;;;;;;;;;21.39;41.90;102058.69;5068304;28;19917;-40
2022/06/03 04:48:26;;;;;;;;;;;;;;;21.41;41.98;102064.84;5047528;28;19925;-41
2022/06/03 04:50:57;;;;;;;;;;;;;;;21.40;41.67;102060.44;5059562;28;19952;-46
2022/06/03 04:53:40;;;;;;;;;;;;;;;21.40;41.95;102060.44;5069857;28;19912;-45
2022/06/03 04:56:05;;;;;;;;;;;;;;;21.41;41.79;102065.75;5056495;28;19923;-48
2022/06/03 04:58:49;;;;;;;;;;;;;;;21.40;41.58;102061.34;5069236;28;19913;-43
2022/06/03 05:01:33;;;;;;;;;;;;;;;21.42;41.61;102061.38;5067088;28;20058;-41
2022/06/03 05:03:58;;;;;;;;;;;;;;;21.41;41.57;102051.75;5040478;28;20351;-42
2022/06/03 05:07:01;;;;;;;;;;;;;;;21.42;41.55;102053.50;5066284;28;20003;-43
2022/06/03 05:09:45;;;;;;;;;;;;;;;21.42;41.64;102058.75;4988812;28;19921;-42
2022/06/03 05:12:10;;;;;;;;;;;;;;;21.42;41.77;102053.50;4998882;28;20038;-44
2022/06/03 05:14:38;;;;;;;;;;;;;;;21.42;41.60;102046.56;5021871;28;19959;-45
2022/06/03 05:17:27;;;;;;;;;;;;;;;21.42;41.85;102038.69;5061608;28;19982;-42
2022/06/03 05:19:58;;;;;;;;;;;;;;;21.44;41.79;102043.97;5029849;28;19932;-41
2022/06/03 05:22:26;;;;;;;;;;;;;;;21.44;41.74;102041.34;5066711;28;19969;-42
2022/06/03 05:25:10;;;;;;;;;;;;;;;21.43;41.72;102039.56;5064882;28;19912;-44
2022/06/03 05:27:56;;;;;;;;;;;;;;;21.44;41.78;102042.25;5055452;28;19923;-45
2022/06/03 05:30:39;;;;;;;;;;;;;;;21.45;41.60;102037.88;5062935;28;19913;-41
2022/06/03 05:33:11;;;;;;;;;;;;;;;21.45;41.69;102048.34;5055639;28;19917;-43
2022/06/03 05:35:55;;;;;;;;;;;;;;;21.45;41.78;102048.34;5049281;28;19924;-48
2022/06/03 05:38:40;;;;;;;;;;;;;;;21.46;41.81;102055.38;5067326;28;20327;-42
2022/06/03 05:44:05;;;;;;;;;;;;;;;21.46;41.66;102039.63;5071491;28;19955;-44
2022/06/03 05:46:33;;;;;;;;;;;;;;;21.46;41.77;102044.88;5041165;28;19939;-42
2022/06/03 05:49:07;;;;;;;;;;;;;;;21.46;41.63;102050.13;5038457;28;19913;-42
2022/06/03 05:51:51;;;;;;;;;;;;;;;21.46;41.78;102050.13;5072128;28;19912;-42
2022/06/03 05:54:17;;;;;;;;;;;;;;;21.46;41.53;102047.50;5038278;28;19920;-43
2022/06/03 05:56:45;;;;;;;;;;;;;;;21.47;41.42;102051.91;5051891;28;19923;-41
2022/06/03 05:59:32;;;;;;;;;;;;;;;21.47;41.71;102046.66;5060284;28;19982;-41
2022/06/03 06:02:05;;;;;;;;;;;;;;;21.47;41.74;102035.31;5045188;28;20011;-41
2022/06/03 06:04:49;;;;;;;;;;;;;;;21.48;41.79;102040.56;5047907;28;19916;-41
2022/06/03 06:07:52;;;;;;;;;;;;;;;21.49;41.61;102037.09;5060376;28;19968;-42
2022/06/03 06:10:17;;;;;;;;;;;;;;;21.50;41.77;102035.38;4982894;28;19937;-41
2022/06/03 06:13:01;;;;;;;;;;;;;;;21.50;41.65;102038.00;4960551;28;19918;-42
2022/06/03 06:15:29;;;;;;;;;;;;;;;21.49;41.70;102039.72;5028606;28;20026;-49
2022/06/03 06:17:55;;;;;;;;;;;;;;;21.50;41.81;102041.50;5069707;28;19917;-43
2022/06/03 06:20:29;;;;;;;;;;;;;;;21.50;41.72;102046.75;5061369;28;19927;-41
2022/06/03 06:22:57;;;;;;;;;;;;;;;21.49;41.70;102034.47;5069539;28;20195;-46
2022/06/03 06:25:24;;;;;;;;;;;;;;;21.50;41.78;102035.38;5056714;28;19912;-42
2022/06/03 06:28:08;;;;;;;;;;;;;;;21.49;41.69;102034.47;5066843;28;20387;-45
2022/06/03 06:30:43;;;;;;;;;;;;;;;21.49;42.29;102034.47;5067579;28;19916;-41
2022/06/03 06:33:11;;;;;;;;;;;;;;;21.49;41.72;102039.72;5025511;28;19940;-47
2022/06/03 06:35:55;;;;;;;;;;;;;;;21.50;41.90;102036.25;5064138;28;19958;-45
2022/06/03 06:38:26;;;;;;;;;;;;;;;21.49;41.80;102042.34;5041464;28;19974;-41
2022/06/03 06:40:57;;;;;;;;;;;;;;;21.47;42.10;102036.19;5057316;28;19938;-41
2022/06/03 06:43:25;;;;;;;;;;;;;;;21.48;41.92;102037.06;5049354;28;20138;-42
2022/06/03 06:45:58;;;;;;;;;;;;;;;21.49;41.88;102038.84;5053722;28;19952;-42
2022/06/03 06:48:36;;;;;;;;;;;;;;;21.49;41.94;102039.72;5034838;28;19917;-42
2022/06/03 06:51:20;;;;;;;;;;;;;;;21.49;41.58;102044.09;5048779;28;19912;-40
2022/06/03 06:53:49;;;;;;;;;;;;;;;21.49;41.76;102039.72;5045342;28;19923;-46
2022/06/03 06:56:14;;;;;;;;;;;;;;;21.48;41.86;102037.94;5038314;28;19938;-40
2022/06/03 06:58:45;;;;;;;;;;;;;;;21.49;42.08;102034.47;5063150;28;19917;-44
2022/06/03 07:01:15;;;;;;;;;;;;;;;21.51;41.94;102038.03;5062685;28;20296;-45
2022/06/03 07:03:45;;;;;;;;;;;;;;;21.51;41.85;102027.53;5044821;28;19924;-44
2022/06/03 07:06:14;;;;;;;;;;;;;;;21.53;42.18;102030.22;5060089;28;19917;-42
2022/06/03 07:08:48;;;;;;;;;;;;;;;21.52;41.81;102029.31;5035122;28;20100;-44
2022/06/03 07:11:36;;;;;;;;;;;;;;;21.25;41.04;102032.13;5018377;28;20283;-41
2022/06/03 07:14:06;;;;;;;;;;;;;;;19.98;41.79;102034.44;5056875;28;19917;-41
2022/06/03 07:20:01;;;;;;;;;;;;;;;20.23;42.26;102033.50;5033662;28;20066;-42
2022/06/03 07:22:50;;;;;;;;;;;;;;;20.66;41.67;102027.78;5056580;28;19920;-43
2022/06/03 07:25:15;;;;;;;;;;;;;;;20.93;41.68;102027.75;5030113;28;20322;-41
2022/06/03 07:27:43;;;;;;;;;;;;;;;21.09;41.30;102033.41;5064726;28;19920;-43
2022/06/03 07:30:19;;;;;;;;;;;;;;;21.17;41.17;102031.91;5044491;28;19924;-43
2022/06/03 07:32:49;;;;;;;;;;;;;;;21.23;41.10;102032.06;5040232;28;19924;-41
2022/06/03 07:35:43;;;;;;;;;;;;;;;21.26;41.29;102026.91;5043955;28;19912;-43
2022/06/03 07:38:11;;;;;;;;;;;;;;;21.28;41.68;102019.97;5040491;28;19931;-42
2022/06/03 07:40:41;;;;;;;;;;;;;;;21.30;41.51;102020.03;5053395;28;20799;-40
2022/06/03 07:43:17;;;;;;;;;;;;;;;21.30;41.36;102007.78;5018959;28;20489;-42
2022/06/03 07:45:48;;;;;;;;;;;;;;;21.32;41.63;102010.47;5043984;28;20373;-40
2022/06/03 07:48:14;;;;;;;;;;;;;;;21.34;41.36;102002.63;5049030;28;19916;-41
2022/06/03 07:50:48;;;;;;;;;;;;;;;21.35;41.20;102005.31;5028410;28;19962;-43
2022/06/03 07:53:18;;;;;;;;;;;;;;;21.36;41.21;102006.19;5060182;28;19928;-47
2022/06/03 07:55:43;;;;;;;;;;;;;;;21.35;41.13;102004.41;5044406;28;20289;-41
2022/06/03 07:58:09;;;;;;;;;;;;;;;21.37;41.73;102002.72;5034341;28;19920;-42
2022/06/03 08:00:37;;;;;;;;;;;;;;;21.37;41.46;102002.72;5054915;28;19916;-40
2022/06/03 08:03:15;;;;;;;;;;;;;;;21.38;41.17;101994.00;5038697;28;19917;-41
2022/06/03 08:05:44;;;;;;;;;;;;;;;21.39;41.58;101995.78;5028244;28;19916;-43
2022/06/03 08:10:57;;;;;;;;;;;;;;;21.41;41.23;101994.09;5049066;28;19973;-44
2022/06/03 08:13:43;;;;;;;;;;;;;;;21.40;41.64;101987.06;5028046;28;20261;-48
2022/06/03 08:16:29;;;;;;;;;;;;;;;21.40;41.52;101987.06;5063074;28;19927;-43
2022/06/03 08:19:01;;;;;;;;;;;;;;;21.41;41.50;101994.09;5069176;28;19966;-42
2022/06/03 08:21:32;;;;;;;;;;;;;;;21.41;41.57;101994.09;5041326;28;19917;-42
2022/06/03 08:23:58;;;;;;;;;;;;;;;21.41;41.38;101994.09;5045502;28;19935;-44
2022/06/03 08:26:23;;;;;;;;;;;;;;;21.40;41.51;101990.59;5055931;28;19935;-42
2022/06/03 08:28:50;;;;;;;;;;;;;;;21.42;41.50;102001.09;5030074;28;19924;-43
2022/06/03 08:31:16;;;;;;;;;;;;;;;21.41;41.43;101996.69;5051922;28;20106;-46
2022/06/03 08:33:48;;;;;;;;;;;;;;;21.42;41.58;102002.00;5045567;28;20378;-44
2022/06/03 08:36:14;;;;;;;;;;;;;;;21.42;41.63;102006.34;5051196;28;19924;-45
2022/06/03 08:38:45;;;;;;;;;;;;;;;21.44;41.92;102002.03;5065301;28;20137;-44
2022/06/03 08:41:33;;;;;;;;;;;;;;;21.47;42.03;102004.72;5047054;28;19917;-45
2022/06/03 08:44:08;;;;;;;;;;;;;;;21.50;42.25;101999.56;5045149;28;19939;-44
2022/06/03 08:46:37;;;;;;;;;;;;;;;21.51;42.21;102001.34;5069107;28;19925;-42
2022/06/03 08:49:04;;;;;;;;;;;;;;;21.53;42.24;102002.25;5064788;28;20410;-43
2022/06/03 08:51:44;;;;;;;;;;;;;;;21.53;42.08;101999.63;5044981;28;19969;-41
2022/06/03 08:54:16;;;;;;;;;;;;;;;21.51;42.39;102001.34;5026189;28;19924;-41
2022/06/03 08:56:42;;;;;;;;;;;;;;;21.52;41.82;101992.63;5031973;28;20990;-46
2022/06/03 08:59:10;;;;;;;;;;;;;;;21.53;42.18;102004.00;5047386;28;19916;-41
2022/06/03 09:01:39;;;;;;;;;;;;;;;21.51;42.35;102001.34;5067867;28;19917;-42
2022/06/03 09:04:13;;;;;;;;;;;;;;;21.53;42.06;102001.38;5045882;28;19916;-46
2022/06/03 09:06:58;;;;;;;;;;;;;;;21.50;42.17;101999.56;5045030;28;20277;-45
2022/06/03 09:09:31;;;;;;;;;;;;;;;21.50;42.10;101994.31;5049473;28;19924;-41
2022/06/03 09:12:05;;;;;;;;;;;;;;;21.50;42.35;101996.06;5043754;28;19939;-47
2022/06/03 09:14:31;;;;;;;;;;;;;;;21.50;42.14;101998.69;5065600;28;19916;-43
2022/06/03 09:16:58;;;;;;;;;;;;;;;21.50;42.03;102002.19;5049308;28;19923;-44
2022/06/03 09:19:25;;;;;;;;;;;;;;;21.49;42.04;102003.03;5069121;28;19920;-47
2022/06/03 09:21:51;;;;;;;;;;;;;;;21.48;41.88;102001.25;5053128;28;20007;-46
2022/06/03 09:24:37;;;;;;;;;;;;;;;21.49;42.09;101997.78;5050308;28;20267;-44
2022/06/03 09:27:02;;;;;;;;;;;;;;;21.40;39.19;102000.16;5025442;28;21466;-39
2022/06/03 09:29:28;;;;;;;;;;;;;;;21.16;38.26;101996.06;5034115;28;19920;-43
2022/06/03 09:32:00;;;;;;;;;;;;;;;20.91;36.04;101991.88;5031981;28;20296;-46
2022/06/03 09:34:34;;;;;;;;;;;;;;;20.65;37.04;101995.47;5042151;28;20357;-39
2022/06/03 09:36:59;;;;;;;;;;;;;;;20.67;35.94;101982.44;5069294;28;19924;-42
2022/06/03 09:39:25;;;;;;;;;;;;;;;20.64;36.05;101993.72;5047521;28;20020;-41
2022/06/03 09:41:53;;;;;;;;;;;;;;;20.77;35.94;101988.84;5070040;28;19916;-40
2022/06/03 09:44:19;;;;;;;;;;;;;;;20.81;35.59;101991.63;5046048;28;19962;-43
2022/06/03 09:46:45;;;;;;;;;;;;;;;20.85;33.31;101987.38;5049440;28;19916;-40
2022/06/03 09:49:10;;;;;;;;;;;;;;;20.82;33.60;101987.28;5032448;28;19927;-43
2022/06/03 09:52:02;;;;;;;;;;;;;;;20.67;32.96;101978.09;5037542;28;20023;-40
2022/06/03 09:54:29;;;;;;;;;;;;;;;20.73;34.14;101978.28;5052832;28;19970;-40
2022/06/03 09:56:56;;;;;;;;;;;;;;;20.68;32.54;101979.91;5038817;28;19913;-43
2022/06/03 09:59:27;;;;;;;;;;;;;;;20.78;32.87;101980.16;5045590;28;19917;-42
2022/06/03 10:01:53;;;;;;;;;;;;;;;20.95;34.16;101973.69;5027041;28;19966;-46
2022/06/03 10:04:19;;;;;;;;;;;;;;;21.06;34.00;101970.47;5041508;28;19916;-42
2022/06/03 10:06:47;;;;;;;;;;;;;;;21.19;34.31;101966.41;5062319;28;19997;-43
2022/06/03 10:14:41;;;;;;;;;;;;;;;21.41;36.75;101962.63;5063400;28;20026;-69
2022/06/03 10:17:09;;;;;;;;;;;;;;;21.40;35.38;101955.63;5026392;28;19917;-76
2022/06/03 10:19:35;;;;;;;;;;;;;;;21.43;34.16;101958.31;5022291;28;20349;-73
2022/06/03 10:22:00;;;;;;;;;;;;;;;21.54;36.46;101959.47;5048618;28;19963;-74
2022/06/03 10:24:30;;;;;;;;;;;;;;;21.56;35.20;101963.00;5028798;28;20011;-76
2022/06/03 10:26:57;;;;;;;;;;;;;;;21.62;36.26;101950.91;5044304;28;19991;-73
2022/06/03 10:29:26;;;;;;;;;;;;;;;21.68;36.88;101951.09;5058416;28;20288;-68
2022/06/03 10:31:53;;;;;;;;;;;;;;;21.68;33.68;101954.59;5042919;28;19916;-50
2022/06/03 10:34:21;;;;;;;;;;;;;;;21.72;33.63;101952.94;5059391;28;19921;-57
2022/06/03 10:36:46;;;;;;;;;;;;;;;21.71;32.27;101945.91;5034012;28;19924;-54
2022/06/03 10:39:18;;;;;;;;;;;;;;;21.69;32.34;101945.91;5049868;28;19913;-55
2022/06/03 10:41:48;;;;;;;;;;;;;;;21.71;34.02;101940.66;5055624;28;20284;-57
2022/06/03 10:44:14;;;;;;;;;;;;;;;21.60;31.55;101933.41;5035914;28;19942;-61
2022/06/03 10:46:58;;;;;;;;;;;;;;;21.67;34.57;101928.34;5033253;28;19962;-56
2022/06/03 10:49:25;;;;;;;;;;;;;;;21.72;34.65;101927.63;5051917;28;19997;-55
2022/06/03 11:02:57;;;;;;;;;;;;;;;21.91;34.39;101928.03;5020578;22;19932;-62
2022/06/03 11:05:26;;;;;;;;;;;;;;;21.92;33.89;101918.44;5083772;28;19916;-62
2022/06/03 11:08:03;;;;;;;;;;;;;;;21.94;33.83;101927.22;5046382;28;19923;-62
2022/06/03 11:10:30;;;;;;;;;;;;;;;21.95;33.26;101927.25;5071824;28;19923;-61
2022/06/03 11:12:59;;;;;;;;;;;;;;;21.95;33.04;101921.13;5058783;28;19916;-60
2022/06/03 11:15:26;;;;;;;;;;;;;;;21.95;32.83;101913.25;5086159;28;19925;-62
2022/06/03 11:17:51;;;;;;;;;;;;;;;21.94;33.45;101916.75;5081830;28;19931;-61
2022/06/03 11:20:18;;;;;;;;;;;;;;;21.95;33.31;101908.03;5063798;28;19916;-57
2022/06/03 11:22:45;;;;;;;;;;;;;;;21.94;32.77;101901.00;5070592;28;19916;-62
2022/06/03 11:25:26;;;;;;;;;;;;;;;21.93;31.00;101899.22;5074194;28;20493;-61
2022/06/03 11:28:21;;;;;;;;;;;;;;;21.86;30.58;101893.84;5044459;28;19954;-61
2022/06/03 11:30:54;;;;;;;;;;;;;;;21.87;30.29;101900.88;5084749;28;19916;-60
2022/06/03 11:33:33;;;;;;;;;;;;;;;21.94;31.60;101893.13;5063923;28;19924;-63
2022/06/03 11:36:07;;;;;;;;;;;;;;;21.98;31.79;101893.22;5063095;28;20014;-59
2022/06/03 11:38:49;;;;;;;;;;;;;;;22.01;32.21;101887.16;5078947;28;19968;-65
2022/06/03 11:41:17;;;;;;;;;;;;;;;22.01;31.96;101881.91;5082185;28;19916;-61
2022/06/03 11:43:52;;;;;;;;;;;;;;;21.98;31.81;101884.47;5071061;28;19912;-61
2022/06/03 11:46:22;;;;;;;;;;;;;;;21.99;32.09;101883.63;5068450;28;19916;-60
2022/06/03 11:48:50;;;;;;;;;;;;;;;22.01;33.07;101882.78;5048934;28;19919;-61
2022/06/03 11:51:15;;;;;;;;;;;;;;;22.02;33.08;101873.19;5063633;28;19915;-60
2022/06/03 11:53:47;;;;;;;;;;;;;;;22.02;31.96;101873.19;5065104;28;20369;-61
2022/06/03 11:56:13;;;;;;;;;;;;;;;22.04;32.48;101861.00;5054677;28;19912;-61
2022/06/03 11:58:38;;;;;;;;;;;;;;;22.05;32.43;101868.03;5071643;28;19920;-64
2022/06/03 12:01:08;;;;;;;;;;;;;;;22.06;32.35;101864.53;5077383;28;19955;-64
2022/06/03 12:03:37;;;;;;;;;;;;;;;22.08;31.31;101862.84;5064876;28;20380;-62
2022/06/03 12:06:25;;;;;;;;;;;;;;;22.10;31.67;101855.88;5064744;28;20020;-62
2022/06/03 12:09:02;;;;;;;;;;;;;;;22.12;32.06;101848.03;5039958;28;19924;-63
2022/06/03 12:14:25;;;;;;;;;;;;;;;22.15;31.66;101843.75;5065629;28;20284;-63
2022/06/03 12:16:53;;;;;;;;;;;;;;;22.19;30.72;101839.41;5082558;28;19964;-51
2022/06/03 12:19:33;;;;;;;;;;;;;;;22.27;29.22;101840.50;5063074;28;19947;-51
2022/06/03 12:22:14;;;;;;;;;;;;;;;22.27;31.60;101839.59;5063959;28;19924;-45
2022/06/03 12:24:40;;;;;;;;;;;;;;;22.25;31.26;101828.19;5059432;28;19912;-44
2022/06/03 12:27:12;;;;;;;;;;;;;;;22.25;31.56;101829.03;5062654;28;19916;-46
2022/06/03 12:29:39;;;;;;;;;;;;;;;22.29;31.79;101824.75;5061750;28;19982;-52
2022/06/03 12:32:13;;;;;;;;;;;;;;;22.33;31.63;101817.00;5056052;28;19977;-47
2022/06/03 12:34:39;;;;;;;;;;;;;;;22.38;32.01;101824.94;5068914;28;19923;-51
2022/06/03 12:37:23;;;;;;;;;;;;;;;22.42;31.55;101821.50;5063422;28;20307;-47
2022/06/03 12:40:02;;;;;;;;;;;;;;;22.47;31.74;101814.63;5053814;28;20022;-47
2022/06/03 12:42:28;;;;;;;;;;;;;;;22.49;31.95;101811.16;5039937;28;20215;-48
2022/06/03 12:44:56;;;;;;;;;;;;;;;22.52;32.31;101813.84;5061693;28;19912;-52
2022/06/03 12:47:26;;;;;;;;;;;;;;;22.50;32.09;101812.91;5066880;28;19919;-47
2022/06/03 12:49:58;;;;;;;;;;;;;;;22.49;31.99;101795.41;5063539;28;19919;-51
2022/06/03 12:52:27;;;;;;;;;;;;;;;22.50;31.83;101799.78;5060881;28;19924;-45
2022/06/03 12:55:04;;;;;;;;;;;;;;;22.50;31.67;101797.16;5077571;28;19957;-46
2022/06/03 12:57:33;;;;;;;;;;;;;;;22.50;32.26;101802.44;5061820;28;19992;-47
2022/06/03 13:00:03;;;;;;;;;;;;;;;22.50;32.70;101807.69;5044309;28;19912;-49
2022/06/03 13:02:30;;;;;;;;;;;;;;;22.53;32.94;101803.38;5075557;28;20365;-43
2022/06/03 13:04:55;;;;;;;;;;;;;;;22.56;32.40;101798.19;5062097;28;19931;-50
2022/06/03 13:07:27;;;;;;;;;;;;;;;22.57;33.59;101801.69;5060435;28;19920;-46
2022/06/03 13:09:56;;;;;;;;;;;;;;;22.57;33.24;101793.81;5087068;28;20286;-47
2022/06/03 13:12:31;;;;;;;;;;;;;;;22.56;32.99;101792.03;5070883;28;19919;-43
2022/06/03 13:14:57;;;;;;;;;;;;;;;22.57;32.84;101778.03;5087945;28;19920;-49
2022/06/03 13:17:41;;;;;;;;;;;;;;;22.61;31.94;101785.13;5069023;28;19912;-45
2022/06/03 13:20:06;;;;;;;;;;;;;;;22.63;31.93;101779.91;5086732;28;19955;-47
2022/06/03 13:22:44;;;;;;;;;;;;;;;22.63;32.18;101788.66;5089835;28;19994;-42
2022/06/03 13:25:17;;;;;;;;;;;;;;;22.63;32.21;101783.41;5051310;28;20349;-41
2022/06/03 13:28:02;;;;;;;;;;;;;;;22.63;32.05;101778.16;5068176;28;20053;-40
2022/06/03 13:30:37;;;;;;;;;;;;;;;22.63;32.66;101774.66;5081144;28;19916;-46
2022/06/03 13:33:12;;;;;;;;;;;;;;;22.64;32.20;101769.41;5059337;28;19916;-40
2022/06/03 13:35:57;;;;;;;;;;;;;;;22.64;32.17;101768.56;5082807;28;20293;-49
2022/06/03 13:38:25;;;;;;;;;;;;;;;22.60;32.62;101762.34;5067324;28;19923;-45
2022/06/03 13:44:01;;;;;;;;;;;;;;;22.55;32.91;101758.75;5064626;28;19965;-47